Sabinal, Texas
Current Conditions -  °F | °C
As of 4:55 PM on Thursday 20 Nov 2014 (Local Time) from KUVA Reporting Station
Broken Clouds Broken Clouds  
Wind Chill: 68°   Ceiling: 3100
Heat Index: 68°   Visibility: 10mi
Dew Point: 62°   Wind: 8mph
Humidity: 81%   Direction: 110°ESE
Pressure: 30.01"   Gusts: NA
Location:  29.32°N, 99.47°W
Report Text: KUVA 202255Z AUTO 11007KT 10SM BKN031 20/17 A3001 RMK AO2 T02000167
Loading
Personal Weather Stations






























Interactive Weather Map New forecast layout! Learn more

10-Day Weather Forecast

Advertisements
Track Severe Weather on mobile